Time;durP1;ratioP1;P1;durP2;ratioP2;P2;SDS_P1;SDS_P2;PMS_P1;PMS_P2;Temp;Humidity;BMP_temperature;BMP_pressure;BME280_temperature;BME280_humidity;BME280_pressure;Samples;Min_cycle;Max_cycle;Signal;HPM_P1;HPM_P2
2022/02/07 00:01:31;;;;;;;;;;;;;;;;;;5028023;28;19909;-73
2022/02/07 00:03:59;;;;;;;;;;;;;;;;;;5028234;28;19920;-73
2022/02/07 00:06:25;;;;;;;;;;;;;;;;;;5027763;28;19913;-73
2022/02/07 00:08:51;;;;;;;;;;;;;;;;;;5027659;28;19909;-74
2022/02/07 00:11:17;;;;;;;;;;;;;;;;;;5026922;28;19908;-73
2022/02/07 00:13:43;;;;;;;;;;;;;;;;;;5028255;28;20403;-74
2022/02/07 00:16:08;;;;;;;;;;;;;;;;;;5027575;28;19913;-73
2022/02/07 00:18:35;;;;;;;;;;;;;;;;;;5028850;28;20285;-73
2022/02/07 00:21:01;;;;;;;;;;;;;;;;;;5031354;28;20326;-73
2022/02/07 00:23:27;;;;;;;;;;;;;;;;;;5030430;28;20037;-72
2022/02/07 00:25:53;;;;;;;;;;;;;;;;;;5031690;28;20273;-73
2022/02/07 00:28:18;;;;;;;;;;;;;;;;;;5032644;28;19920;-74
2022/02/07 00:30:43;;;;;;;;;;;;;;;;;;5032393;28;20401;-74
2022/02/07 00:33:09;;;;;;;;;;;;;;;;;;5032225;28;19966;-73
2022/02/07 00:35:35;;;;;;;;;;;;;;;;;;5031650;28;19913;-74
2022/02/07 00:38:05;;;;;;;;;;;;;;;;;;5032062;28;19913;-74
2022/02/07 00:43:39;;;;;;;;;;;;;;;;;;5048692;28;19924;-72
2022/02/07 00:46:09;;;;;;;;;;;;;;;;;;5048911;28;19913;-73
2022/02/07 00:48:34;;;;;;;;;;;;;;;;;;5039130;28;19920;-74
2022/02/07 00:51:00;;;;;;;;;;;;;;;;;;5030623;28;19909;-73
2022/02/07 00:53:26;;;;;;;;;;;;;;;;;;5030375;28;19963;-74
2022/02/07 00:55:52;;;;;;;;;;;;;;;;;;5031523;28;19920;-72
2022/02/07 00:58:17;;;;;;;;;;;;;;;;;;5031067;28;19909;-73
2022/02/07 01:00:42;;;;;;;;;;;;;;;;;;5030481;28;19909;-73
2022/02/07 01:03:08;;;;;;;;;;;;;;;;;;5032730;28;20281;-73
2022/02/07 01:05:33;;;;;;;;;;;;;;;;;;5034838;28;20306;-72
2022/02/07 01:08:00;;;;;;;;;;;;;;;;;;5030669;28;20342;-72
2022/02/07 01:10:35;;;;;;;;;;;;;;;;;;5030306;28;20224;-74
2022/02/07 01:13:20;;;;;;;;;;;;;;;;;;5030242;28;20353;-70
2022/02/07 01:19:26;;;;;;;;;;;;;;;;;;5031751;28;19959;-72
2022/02/07 01:53:32;;;;;;;;;;;;;;;;;;5030451;28;20296;-70
2022/02/07 01:56:02;;;;;;;;;;;;;;;;;;5030110;28;20399;-71
2022/02/07 01:58:27;;;;;;;;;;;;;;;;;;5028983;28;20042;-70
2022/02/07 02:00:53;;;;;;;;;;;;;;;;;;5029180;28;20116;-70
2022/02/07 02:03:19;;;;;;;;;;;;;;;;;;5030644;28;20022;-70
2022/02/07 02:05:44;;;;;;;;;;;;;;;;;;5030187;28;19913;-70
2022/02/07 02:08:11;;;;;;;;;;;;;;;;;;5030303;28;19956;-69
2022/02/07 02:10:39;;;;;;;;;;;;;;;;;;5029143;28;20335;-72
2022/02/07 02:13:37;;;;;;;;;;;;;;;;;;5029184;28;19920;-71
2022/02/07 02:16:17;;;;;;;;;;;;;;;;;;5029928;28;20372;-71
2022/02/07 02:37:28;;;;;;;;;;;;;;;;;;5030001;28;19913;-71
2022/02/07 02:45:36;;;;;;;;;;;;;;;;;;5029384;28;19916;-71
2022/02/07 02:48:06;;;;;;;;;;;;;;;;;;5029465;28;19920;-69
2022/02/07 02:50:33;;;;;;;;;;;;;;;;;;5029397;28;19986;-70
2022/02/07 02:53:00;;;;;;;;;;;;;;;;;;5029703;28;19923;-70
2022/02/07 02:55:25;;;;;;;;;;;;;;;;;;5027511;28;20283;-72
2022/02/07 02:57:51;;;;;;;;;;;;;;;;;;5029739;28;19948;-72
2022/02/07 03:00:16;;;;;;;;;;;;;;;;;;5029652;28;20273;-69
2022/02/07 03:02:42;;;;;;;;;;;;;;;;;;5029223;28;19909;-70
2022/02/07 03:05:07;;;;;;;;;;;;;;;;;;5029572;28;19916;-70
2022/02/07 03:07:33;;;;;;;;;;;;;;;;;;5029278;28;20262;-71
2022/02/07 03:10:01;;;;;;;;;;;;;;;;;;5028752;28;19963;-69
2022/02/07 03:12:27;;;;;;;;;;;;;;;;;;5027731;28;19909;-71
2022/02/07 03:15:03;;;;;;;;;;;;;;;;;;5029294;28;20352;-72
2022/02/07 03:17:28;;;;;;;;;;;;;;;;;;5028008;28;19995;-68
2022/02/07 03:19:53;;;;;;;;;;;;;;;;;;5028817;28;20465;-70
2022/02/07 03:22:19;;;;;;;;;;;;;;;;;;5029475;28;20322;-69
2022/02/07 03:24:44;;;;;;;;;;;;;;;;;;5029142;28;20277;-73
2022/02/07 03:27:09;;;;;;;;;;;;;;;;;;5029497;28;19947;-73
2022/02/07 03:29:35;;;;;;;;;;;;;;;;;;5027742;28;19983;-75
2022/02/07 03:32:00;;;;;;;;;;;;;;;;;;5029620;28;19913;-73
2022/02/07 03:34:25;;;;;;;;;;;;;;;;;;5029589;28;19913;-74
2022/02/07 03:36:51;;;;;;;;;;;;;;;;;;5029308;28;19909;-74
2022/02/07 03:39:16;;;;;;;;;;;;;;;;;;5027859;28;19952;-73
2022/02/07 03:41:41;;;;;;;;;;;;;;;;;;5028336;28;19913;-73
2022/02/07 03:44:07;;;;;;;;;;;;;;;;;;5027962;28;20400;-73
2022/02/07 03:46:32;;;;;;;;;;;;;;;;;;5027574;28;19909;-73
2022/02/07 03:48:58;;;;;;;;;;;;;;;;;;5027658;28;20289;-73
2022/02/07 03:51:23;;;;;;;;;;;;;;;;;;5029165;28;19909;-73
2022/02/07 03:53:49;;;;;;;;;;;;;;;;;;5029482;28;19956;-73
2022/02/07 03:56:17;;;;;;;;;;;;;;;;;;5032114;28;19927;-73
2022/02/07 03:58:42;;;;;;;;;;;;;;;;;;5031084;28;19913;-74
2022/02/07 04:01:08;;;;;;;;;;;;;;;;;;5032685;28;20265;-72
2022/02/07 04:03:35;;;;;;;;;;;;;;;;;;5032687;28;19951;-73
2022/02/07 04:06:04;;;;;;;;;;;;;;;;;;5031650;28;19912;-73
2022/02/07 04:08:34;;;;;;;;;;;;;;;;;;5031129;28;19970;-73
2022/02/07 04:11:10;;;;;;;;;;;;;;;;;;5031862;28;20015;-73
2022/02/07 04:13:39;;;;;;;;;;;;;;;;;;5032103;28;19920;-74
2022/02/07 04:16:05;;;;;;;;;;;;;;;;;;5032323;28;19959;-74
2022/02/07 04:19:00;;;;;;;;;;;;;;;;;;5032340;28;19909;-73
2022/02/07 04:21:16;;;;;;;;;;;;;;;;;;5032649;28;19916;-73
2022/02/07 04:23:42;;;;;;;;;;;;;;;;;;5032090;28;19909;-74
2022/02/07 04:26:07;;;;;;;;;;;;;;;;;;5030137;28;20380;-73
2022/02/07 04:28:32;;;;;;;;;;;;;;;;;;5031547;28;20446;-73
2022/02/07 04:30:58;;;;;;;;;;;;;;;;;;5030436;28;20026;-73
2022/02/07 04:33:23;;;;;;;;;;;;;;;;;;5030756;28;19992;-73
2022/02/07 04:35:48;;;;;;;;;;;;;;;;;;5030641;28;19952;-73
2022/02/07 04:38:14;;;;;;;;;;;;;;;;;;5032359;28;20369;-73
2022/02/07 04:40:40;;;;;;;;;;;;;;;;;;5029801;28;19921;-74
2022/02/07 04:43:08;;;;;;;;;;;;;;;;;;5032311;28;19913;-73
2022/02/07 04:45:48;;;;;;;;;;;;;;;;;;5030218;28;19913;-74
2022/02/07 04:53:50;;;;;;;;;;;;;;;;;;5033086;28;20372;-74
2022/02/07 05:03:51;;;;;;;;;;;;;;;;;;5031455;28;19913;-74
2022/02/07 05:14:30;;;;;;;;;;;;;;;;;;5031930;28;19991;-74
2022/02/07 05:16:56;;;;;;;;;;;;;;;;;;5031305;28;20004;-74
2022/02/07 05:19:22;;;;;;;;;;;;;;;;;;5032588;28;20000;-76
2022/02/07 05:21:48;;;;;;;;;;;;;;;;;;5031830;28;19971;-73
2022/02/07 05:24:13;;;;;;;;;;;;;;;;;;5030056;28;19913;-73
2022/02/07 05:26:39;;;;;;;;;;;;;;;;;;5029684;28;19913;-74
2022/02/07 05:29:06;;;;;;;;;;;;;;;;;;5029857;28;19913;-72
2022/02/07 05:31:31;;;;;;;;;;;;;;;;;;5031476;28;20013;-74
2022/02/07 05:33:56;;;;;;;;;;;;;;;;;;5029692;28;20363;-74
2022/02/07 05:36:22;;;;;;;;;;;;;;;;;;5031174;28;20016;-73
2022/02/07 05:38:50;;;;;;;;;;;;;;;;;;5030848;28;19919;-73
2022/02/07 05:41:17;;;;;;;;;;;;;;;;;;5030752;28;19921;-74
2022/02/07 05:43:46;;;;;;;;;;;;;;;;;;5030951;28;19909;-73
2022/02/07 05:46:11;;;;;;;;;;;;;;;;;;5029618;28;20015;-74
2022/02/07 05:48:37;;;;;;;;;;;;;;;;;;5030923;28;19998;-73
2022/02/07 05:51:04;;;;;;;;;;;;;;;;;;5030902;28;20383;-73
2022/02/07 05:53:29;;;;;;;;;;;;;;;;;;5030808;28;19913;-74
2022/02/07 05:55:54;;;;;;;;;;;;;;;;;;5030358;28;19924;-73
2022/02/07 05:58:21;;;;;;;;;;;;;;;;;;5030598;28;19955;-72
2022/02/07 06:00:47;;;;;;;;;;;;;;;;;;5030543;28;19935;-74
2022/02/07 06:03:12;;;;;;;;;;;;;;;;;;5030286;28;19913;-74
2022/02/07 06:05:37;;;;;;;;;;;;;;;;;;5030352;28;20422;-73
2022/02/07 06:08:03;;;;;;;;;;;;;;;;;;5029290;28;20357;-73
2022/02/07 06:10:28;;;;;;;;;;;;;;;;;;5029309;28;19956;-74
2022/02/07 06:12:54;;;;;;;;;;;;;;;;;;5028849;28;19909;-73
2022/02/07 06:15:20;;;;;;;;;;;;;;;;;;5028543;28;19948;-73
2022/02/07 06:17:52;;;;;;;;;;;;;;;;;;5029751;28;19909;-73
2022/02/07 06:20:18;;;;;;;;;;;;;;;;;;5029708;28;20281;-73
2022/02/07 06:22:45;;;;;;;;;;;;;;;;;;5028391;28;19909;-73
2022/02/07 06:25:11;;;;;;;;;;;;;;;;;;5030192;28;20000;-74
2022/02/07 06:27:36;;;;;;;;;;;;;;;;;;5030070;28;20059;-74
2022/02/07 06:30:02;;;;;;;;;;;;;;;;;;5030553;28;19948;-73
2022/02/07 06:32:27;;;;;;;;;;;;;;;;;;5028341;28;19913;-74
2022/02/07 06:34:52;;;;;;;;;;;;;;;;;;5029647;28;19939;-74
2022/02/07 06:37:19;;;;;;;;;;;;;;;;;;5029880;28;19909;-74
2022/02/07 06:39:44;;;;;;;;;;;;;;;;;;5027835;28;19956;-74
2022/02/07 06:42:09;;;;;;;;;;;;;;;;;;5030543;28;19955;-74
2022/02/07 06:44:35;;;;;;;;;;;;;;;;;;5029940;28;20140;-73
2022/02/07 06:47:00;;;;;;;;;;;;;;;;;;5019800;28;19956;-73
2022/02/07 06:49:26;;;;;;;;;;;;;;;;;;5007829;28;19955;-73
2022/02/07 06:51:51;;;;;;;;;;;;;;;;;;5013848;28;19909;-72
2022/02/07 06:54:17;;;;;;;;;;;;;;;;;;5027201;28;20117;-74
2022/02/07 06:56:43;;;;;;;;;;;;;;;;;;5026578;28;19909;-73
2022/02/07 06:59:09;;;;;;;;;;;;;;;;;;5027164;28;19917;-73
2022/02/07 07:01:36;;;;;;;;;;;;;;;;;;5027894;28;19995;-72
2022/02/07 07:04:01;;;;;;;;;;;;;;;;;;5027672;28;20384;-73
2022/02/07 07:06:27;;;;;;;;;;;;;;;;;;5027127;28;20018;-74
2022/02/07 07:08:54;;;;;;;;;;;;;;;;;;5027349;28;20029;-73
2022/02/07 07:11:25;;;;;;;;;;;;;;;;;;5027459;28;19945;-74
2022/02/07 07:13:59;;;;;;;;;;;;;;;;;;5022470;28;19913;-72
2022/02/07 07:18:59;;;;;;;;;;;;;;;;;;5028299;28;20412;-73
2022/02/07 07:21:26;;;;;;;;;;;;;;;;;;5026240;28;19923;-72
2022/02/07 07:23:52;;;;;;;;;;;;;;;;;;5034184;28;20471;-74
2022/02/07 07:26:17;;;;;;;;;;;;;;;;;;5025818;28;20000;-73
2022/02/07 07:28:43;;;;;;;;;;;;;;;;;;5027728;28;20388;-74
2022/02/07 07:31:11;;;;;;;;;;;;;;;;;;5041206;28;19920;-74
2022/02/07 07:33:38;;;;;;;;;;;;;;;;;;5021135;28;19921;-73
2022/02/07 07:36:10;;;;;;;;;;;;;;;;;;5028746;28;19921;-74
2022/02/07 07:38:35;;;;;;;;;;;;;;;;;;5016512;28;19921;-75
2022/02/07 07:41:00;;;;;;;;;;;;;;;;;;5024754;28;19952;-74
2022/02/07 07:43:26;;;;;;;;;;;;;;;;;;5023532;28;20014;-74
2022/02/07 07:46:02;;;;;;;;;;;;;;;;;;5017801;28;20556;-74
2022/02/07 07:48:28;;;;;;;;;;;;;;;;;;5016847;28;20422;-73
2022/02/07 07:50:58;;;;;;;;;;;;;;;;;;5001474;28;19929;-72
2022/02/07 08:04:32;;;;;;;;;;;;;;;;;;5024868;28;19944;-74
2022/02/07 08:09:48;;;;;;;;;;;;;;;;;;5024860;28;20008;-74
2022/02/07 08:12:15;;;;;;;;;;;;;;;;;;5022238;28;20582;-74
2022/02/07 08:14:40;;;;;;;;;;;;;;;;;;5019007;28;19924;-75
2022/02/07 08:17:07;;;;;;;;;;;;;;;;;;5020773;28;19921;-75
2022/02/07 08:19:33;;;;;;;;;;;;;;;;;;5023357;28;19921;-74
2022/02/07 08:21:59;;;;;;;;;;;;;;;;;;5021020;28;20385;-75
2022/02/07 08:24:25;;;;;;;;;;;;;;;;;;5021425;28;19928;-74
2022/02/07 08:26:53;;;;;;;;;;;;;;;;;;5024207;28;19932;-74
2022/02/07 08:29:18;;;;;;;;;;;;;;;;;;5018716;28;20041;-74
2022/02/07 08:31:45;;;;;;;;;;;;;;;;;;5022687;28;20003;-74
2022/02/07 08:34:10;;;;;;;;;;;;;;;;;;5019976;28;19920;-74
2022/02/07 08:36:36;;;;;;;;;;;;;;;;;;5018858;28;19992;-72
2022/02/07 08:39:02;;;;;;;;;;;;;;;;;;5019154;28;19920;-73
2022/02/07 08:41:28;;;;;;;;;;;;;;;;;;5024079;28;19928;-74
2022/02/07 08:43:54;;;;;;;;;;;;;;;;;;5024535;28;19971;-73
2022/02/07 08:46:20;;;;;;;;;;;;;;;;;;5020822;28;19978;-74
2022/02/07 08:48:45;;;;;;;;;;;;;;;;;;5023022;28;20093;-74
2022/02/07 08:51:11;;;;;;;;;;;;;;;;;;5020396;28;19921;-76
2022/02/07 08:53:43;;;;;;;;;;;;;;;;;;5024283;28;19999;-74
2022/02/07 08:56:09;;;;;;;;;;;;;;;;;;5019490;28;19964;-74
2022/02/07 08:58:36;;;;;;;;;;;;;;;;;;5021750;28;19956;-73
2022/02/07 09:03:45;;;;;;;;;;;;;;;;;;5017941;28;20028;-74
2022/02/07 09:11:19;;;;;;;;;;;;;;;;;;5022238;28;19927;-74
2022/02/07 09:13:47;;;;;;;;;;;;;;;;;;5025146;28;20448;-73
2022/02/07 09:18:58;;;;;;;;;;;;;;;;;;5023436;28;19928;-73
2022/02/07 09:21:28;;;;;;;;;;;;;;;;;;5023380;28;20031;-75
2022/02/07 09:23:54;;;;;;;;;;;;;;;;;;5019303;28;20465;-74
2022/02/07 09:26:20;;;;;;;;;;;;;;;;;;5018139;28;19944;-74
2022/02/07 09:28:45;;;;;;;;;;;;;;;;;;5020133;28;19925;-74
2022/02/07 09:31:11;;;;;;;;;;;;;;;;;;5022957;28;19940;-73
2022/02/07 09:33:37;;;;;;;;;;;;;;;;;;5023573;28;19920;-73
2022/02/07 09:36:04;;;;;;;;;;;;;;;;;;5020277;28;19927;-74
2022/02/07 09:38:32;;;;;;;;;;;;;;;;;;5018399;28;20750;-74
2022/02/07 09:40:58;;;;;;;;;;;;;;;;;;5019502;28;19944;-74
2022/02/07 09:43:29;;;;;;;;;;;;;;;;;;5020885;28;19999;-75
2022/02/07 09:46:04;;;;;;;;;;;;;;;;;;5018465;28;19924;-74
2022/02/07 09:48:30;;;;;;;;;;;;;;;;;;5023156;28;19921;-73
2022/02/07 09:50:55;;;;;;;;;;;;;;;;;;5003429;28;19931;-73
2022/02/07 09:53:25;;;;;;;;;;;;;;;;;;5021547;28;19928;-72
2022/02/07 09:55:51;;;;;;;;;;;;;;;;;;5019757;28;19964;-74
2022/02/07 09:58:17;;;;;;;;;;;;;;;;;;5022087;28;20070;-74
2022/02/07 10:00:45;;;;;;;;;;;;;;;;;;5021628;28;19913;-74
2022/02/07 10:03:15;;;;;;;;;;;;;;;;;;5023392;28;19924;-73
2022/02/07 10:05:49;;;;;;;;;;;;;;;;;;5017298;28;19916;-75
2022/02/07 10:11:14;;;;;;;;;;;;;;;;;;5023349;28;19924;-74
2022/02/07 10:19:57;;;;;;;;;;;;;;;;;;5023432;28;19924;-74
2022/02/07 10:43:56;;;;;;;;;;;;;;;;;;5028267;28;19920;-74
2022/02/07 10:46:20;;;;;;;;;;;;;;;;;;5022670;28;20353;-72
2022/02/07 10:48:48;;;;;;;;;;;;;;;;;;5020716;28;19920;-74
2022/02/07 10:51:25;;;;;;;;;;;;;;;;;;5022574;28;19959;-72
2022/02/07 10:53:56;;;;;;;;;;;;;;;;;;5019808;28;20438;-74
2022/02/07 10:56:36;;;;;;;;;;;;;;;;;;5016462;28;20028;-74
2022/02/07 10:59:06;;;;;;;;;;;;;;;;;;5019311;28;19923;-73
2022/02/07 11:04:16;;;;;;;;;;;;;;;;;;5017177;28;19948;-75
2022/02/07 11:06:44;;;;;;;;;;;;;;;;;;5021558;28;20012;-73
2022/02/07 11:10:02;;;;;;;;;;;;;;;;;;5021200;28;19921;-73
2022/02/07 11:22:09;;;;;;;;;;;;;;;;;;5019584;28;20041;-74
2022/02/07 11:27:30;;;;;;;;;;;;;;;;;;5019783;28;19948;-75
2022/02/07 11:29:56;;;;;;;;;;;;;;;;;;5031607;28;20352;-72
2022/02/07 11:32:45;;;;;;;;;;;;;;;;;;5016482;28;20361;-74
2022/02/07 11:35:12;;;;;;;;;;;;;;;;;;5015764;28;20871;-73
2022/02/07 11:37:38;;;;;;;;;;;;;;;;;;5018658;28;19964;-75
2022/02/07 11:40:29;;;;;;;;;;;;;;;;;;5017715;28;20078;-73
2022/02/07 11:43:14;;;;;;;;;;;;;;;;;;5018377;28;19917;-73
2022/02/07 11:45:54;;;;;;;;;;;;;;;;;;5031277;28;20795;-74
2022/02/07 11:48:24;;;;;;;;;;;;;;;;;;5018268;28;19917;-74
2022/02/07 11:50:52;;;;;;;;;;;;;;;;;;5016862;28;20007;-74
2022/02/07 11:53:21;;;;;;;;;;;;;;;;;;5019624;28;19940;-74
2022/02/07 11:55:55;;;;;;;;;;;;;;;;;;5016955;28;19926;-73
2022/02/07 11:58:26;;;;;;;;;;;;;;;;;;5017847;28;20469;-74
2022/02/07 12:00:57;;;;;;;;;;;;;;;;;;5018476;28;19936;-74
2022/02/07 12:03:23;;;;;;;;;;;;;;;;;;5018934;28;19921;-73
2022/02/07 12:05:55;;;;;;;;;;;;;;;;;;5015426;28;20638;-74
2022/02/07 12:08:24;;;;;;;;;;;;;;;;;;5021388;28;20415;-77
2022/02/07 12:11:02;;;;;;;;;;;;;;;;;;5012746;28;20405;-72
2022/02/07 12:13:30;;;;;;;;;;;;;;;;;;5017057;28;20032;-73
2022/02/07 12:15:57;;;;;;;;;;;;;;;;;;5018360;28;19952;-74
2022/02/07 12:18:23;;;;;;;;;;;;;;;;;;5022461;28;19928;-73
2022/02/07 12:20:50;;;;;;;;;;;;;;;;;;5027261;28;20629;-73
2022/02/07 12:23:42;;;;;;;;;;;;;;;;;;5026004;28;19913;-73
2022/02/07 12:26:11;;;;;;;;;;;;;;;;;;5026728;28;20430;-73
2022/02/07 12:28:46;;;;;;;;;;;;;;;;;;5021269;28;19920;-73
2022/02/07 12:33:42;;;;;;;;;;;;;;;;;;5022541;28;19921;-74
2022/02/07 12:36:08;;;;;;;;;;;;;;;;;;5023624;28;19935;-74
2022/02/07 12:38:35;;;;;;;;;;;;;;;;;;5018766;28;19917;-74
2022/02/07 12:41:03;;;;;;;;;;;;;;;;;;5024178;28;19948;-74
2022/02/07 12:43:31;;;;;;;;;;;;;;;;;;5019734;28;19996;-74
2022/02/07 12:45:56;;;;;;;;;;;;;;;;;;5024412;28;19921;-75
2022/02/07 12:48:27;;;;;;;;;;;;;;;;;;5021409;28;20381;-76
2022/02/07 12:50:54;;;;;;;;;;;;;;;;;;5023792;28;19981;-74
2022/02/07 12:53:20;;;;;;;;;;;;;;;;;;5021489;28;19925;-74
2022/02/07 12:55:47;;;;;;;;;;;;;;;;;;5024246;28;20300;-74
2022/02/07 12:58:13;;;;;;;;;;;;;;;;;;5020222;28;20281;-74
2022/02/07 13:00:39;;;;;;;;;;;;;;;;;;5033338;28;19921;-75
2022/02/07 13:03:05;;;;;;;;;;;;;;;;;;5022918;28;20828;-71
2022/02/07 13:05:30;;;;;;;;;;;;;;;;;;5014369;28;19928;-73
2022/02/07 13:07:57;;;;;;;;;;;;;;;;;;5020749;28;19917;-73
2022/02/07 13:10:23;;;;;;;;;;;;;;;;;;5022875;28;20012;-73
2022/02/07 13:15:25;;;;;;;;;;;;;;;;;;5023041;28;20448;-73
2022/02/07 13:17:57;;;;;;;;;;;;;;;;;;5021556;28;20078;-73
2022/02/07 13:20:23;;;;;;;;;;;;;;;;;;5019211;28;19931;-74
2022/02/07 13:23:00;;;;;;;;;;;;;;;;;;5027913;28;20595;-75
2022/02/07 13:25:36;;;;;;;;;;;;;;;;;;5029508;28;19940;-74
2022/02/07 13:28:01;;;;;;;;;;;;;;;;;;5030078;28;19917;-73
2022/02/07 13:30:26;;;;;;;;;;;;;;;;;;5031643;28;21002;-76
2022/02/07 13:32:52;;;;;;;;;;;;;;;;;;5029351;28;19967;-73
2022/02/07 13:35:19;;;;;;;;;;;;;;;;;;5022173;28;19921;-75
2022/02/07 13:37:45;;;;;;;;;;;;;;;;;;5027489;28;19982;-74
2022/02/07 13:40:12;;;;;;;;;;;;;;;;;;5034511;28;20483;-73
2022/02/07 13:42:38;;;;;;;;;;;;;;;;;;5033784;28;19920;-73
2022/02/07 13:45:03;;;;;;;;;;;;;;;;;;5025390;28;19913;-74
2022/02/07 13:47:29;;;;;;;;;;;;;;;;;;5035068;28;19920;-75
2022/02/07 13:50:11;;;;;;;;;;;;;;;;;;5040029;28;20668;-73
2022/02/07 13:52:38;;;;;;;;;;;;;;;;;;5023758;28;19933;-72
2022/02/07 13:55:15;;;;;;;;;;;;;;;;;;5030766;28;19924;-73
2022/02/07 13:57:50;;;;;;;;;;;;;;;;;;5020605;28;19921;-73
2022/02/07 14:00:16;;;;;;;;;;;;;;;;;;5016871;28;19927;-74
2022/02/07 14:02:43;;;;;;;;;;;;;;;;;;5028357;28;19928;-73
2022/02/07 14:05:09;;;;;;;;;;;;;;;;;;5034497;28;19917;-75
2022/02/07 14:07:51;;;;;;;;;;;;;;;;;;5029281;28;19920;-74
2022/02/07 14:10:21;;;;;;;;;;;;;;;;;;5031248;28;19959;-74
2022/02/07 14:12:47;;;;;;;;;;;;;;;;;;5025009;28;20360;-74
2022/02/07 14:15:12;;;;;;;;;;;;;;;;;;5025904;28;19917;-74
2022/02/07 14:17:43;;;;;;;;;;;;;;;;;;5031404;28;20062;-73
2022/02/07 14:20:11;;;;;;;;;;;;;;;;;;5026837;28;19916;-73
2022/02/07 14:22:37;;;;;;;;;;;;;;;;;;5027036;28;19932;-75
2022/02/07 14:25:02;;;;;;;;;;;;;;;;;;5019485;28;19913;-74
2022/02/07 14:27:28;;;;;;;;;;;;;;;;;;5030969;28;19917;-75
2022/02/07 14:29:53;;;;;;;;;;;;;;;;;;5019287;28;19947;-73
2022/02/07 14:32:19;;;;;;;;;;;;;;;;;;5015666;28;19955;-74
2022/02/07 14:34:44;;;;;;;;;;;;;;;;;;5020703;28;19921;-74
2022/02/07 14:37:11;;;;;;;;;;;;;;;;;;5025486;28;19924;-75
2022/02/07 14:39:37;;;;;;;;;;;;;;;;;;5023395;28;20370;-73
2022/02/07 14:42:04;;;;;;;;;;;;;;;;;;5015863;28;19917;-74
2022/02/07 14:44:32;;;;;;;;;;;;;;;;;;5028070;28;19960;-74
2022/02/07 14:47:10;;;;;;;;;;;;;;;;;;5020633;28;20743;-73
2022/02/07 14:49:35;;;;;;;;;;;;;;;;;;5021109;28;19921;-73
2022/02/07 14:52:03;;;;;;;;;;;;;;;;;;5028599;28;19923;-75
2022/02/07 14:54:30;;;;;;;;;;;;;;;;;;5011439;28;19921;-74
2022/02/07 14:56:56;;;;;;;;;;;;;;;;;;5025150;28;19943;-74
2022/02/07 14:59:23;;;;;;;;;;;;;;;;;;5033622;28;19917;-74
2022/02/07 15:01:52;;;;;;;;;;;;;;;;;;5020739;28;19959;-72
2022/02/07 15:04:18;;;;;;;;;;;;;;;;;;5019279;28;20082;-74
2022/02/07 15:06:43;;;;;;;;;;;;;;;;;;5020941;28;20565;-73
2022/02/07 15:09:08;;;;;;;;;;;;;;;;;;5026102;28;20004;-73
2022/02/07 15:11:34;;;;;;;;;;;;;;;;;;5017615;28;19978;-73
2022/02/07 15:13:59;;;;;;;;;;;;;;;;;;5019636;28;20253;-74
2022/02/07 15:16:25;;;;;;;;;;;;;;;;;;5034643;28;19956;-74
2022/02/07 15:18:50;;;;;;;;;;;;;;;;;;5025282;28;19916;-73
2022/02/07 15:21:15;;;;;;;;;;;;;;;;;;5018963;28;20258;-73
2022/02/07 15:23:41;;;;;;;;;;;;;;;;;;5015357;28;19913;-75
2022/02/07 15:26:07;;;;;;;;;;;;;;;;;;5024724;28;19913;-74
2022/02/07 15:28:32;;;;;;;;;;;;;;;;;;5019732;28;20420;-74
2022/02/07 15:30:58;;;;;;;;;;;;;;;;;;5021094;28;20681;-76
2022/02/07 15:33:32;;;;;;;;;;;;;;;;;;5024633;28;19921;-76
2022/02/07 15:35:58;;;;;;;;;;;;;;;;;;5023871;28;20595;-74
2022/02/07 15:38:25;;;;;;;;;;;;;;;;;;5016498;28;19913;-72
2022/02/07 15:40:51;;;;;;;;;;;;;;;;;;5025113;28;19925;-73
2022/02/07 15:43:16;;;;;;;;;;;;;;;;;;5025552;28;20326;-73
2022/02/07 15:45:43;;;;;;;;;;;;;;;;;;5029982;28;20064;-78
2022/02/07 15:48:08;;;;;;;;;;;;;;;;;;5042110;28;19991;-72
2022/02/07 15:50:34;;;;;;;;;;;;;;;;;;5026277;28;20005;-74
2022/02/07 15:53:01;;;;;;;;;;;;;;;;;;5035718;28;19928;-73
2022/02/07 15:55:27;;;;;;;;;;;;;;;;;;5028865;28;19923;-74
2022/02/07 15:57:54;;;;;;;;;;;;;;;;;;5038587;28;19912;-73
2022/02/07 16:00:20;;;;;;;;;;;;;;;;;;5032839;28;19923;-74
2022/02/07 16:02:50;;;;;;;;;;;;;;;;;;5029537;28;19917;-74
2022/02/07 16:05:19;;;;;;;;;;;;;;;;;;5048962;28;19916;-73
2022/02/07 16:07:44;;;;;;;;;;;;;;;;;;5028530;28;19913;-73
2022/02/07 16:10:10;;;;;;;;;;;;;;;;;;5018407;28;19936;-74
2022/02/07 16:12:37;;;;;;;;;;;;;;;;;;5032075;28;19916;-73
2022/02/07 16:15:02;;;;;;;;;;;;;;;;;;5026611;28;19921;-74
2022/02/07 16:17:28;;;;;;;;;;;;;;;;;;5027992;28;19913;-75
2022/02/07 16:19:56;;;;;;;;;;;;;;;;;;5024558;28;19920;-74
2022/02/07 16:22:22;;;;;;;;;;;;;;;;;;5030388;28;19913;-74
2022/02/07 16:24:47;;;;;;;;;;;;;;;;;;5025151;28;20262;-74
2022/02/07 16:27:13;;;;;;;;;;;;;;;;;;5037005;28;19954;-73
2022/02/07 16:29:38;;;;;;;;;;;;;;;;;;5028530;28;19948;-74
2022/02/07 16:32:04;;;;;;;;;;;;;;;;;;5037059;28;19917;-74
2022/02/07 16:34:29;;;;;;;;;;;;;;;;;;5025020;28;20336;-72
2022/02/07 16:36:56;;;;;;;;;;;;;;;;;;5039068;28;19956;-74
2022/02/07 16:39:21;;;;;;;;;;;;;;;;;;5029832;28;19932;-73
2022/02/07 16:41:47;;;;;;;;;;;;;;;;;;5030182;28;19913;-74
2022/02/07 16:44:14;;;;;;;;;;;;;;;;;;5032003;28;20506;-74
2022/02/07 16:46:50;;;;;;;;;;;;;;;;;;5035717;28;19944;-74
2022/02/07 16:49:16;;;;;;;;;;;;;;;;;;5049451;28;19936;-73
2022/02/07 16:51:41;;;;;;;;;;;;;;;;;;5041487;28;19917;-75
2022/02/07 16:54:07;;;;;;;;;;;;;;;;;;5032334;28;20361;-73
2022/02/07 16:56:33;;;;;;;;;;;;;;;;;;5027605;28;19925;-74
2022/02/07 16:58:58;;;;;;;;;;;;;;;;;;5036477;28;20296;-74
2022/02/07 17:01:24;;;;;;;;;;;;;;;;;;5025192;28;19935;-74
2022/02/07 17:03:49;;;;;;;;;;;;;;;;;;5036162;28;19935;-74
2022/02/07 17:06:19;;;;;;;;;;;;;;;;;;5039127;28;20373;-73
2022/02/07 17:08:44;;;;;;;;;;;;;;;;;;5028353;28;19920;-74
2022/02/07 17:11:09;;;;;;;;;;;;;;;;;;5039238;28;19985;-73
2022/02/07 17:13:35;;;;;;;;;;;;;;;;;;5028212;28;20313;-73
2022/02/07 17:16:01;;;;;;;;;;;;;;;;;;5035815;28;19975;-73
2022/02/07 17:18:27;;;;;;;;;;;;;;;;;;5028244;28;20407;-74
2022/02/07 17:20:53;;;;;;;;;;;;;;;;;;5047230;28;19921;-74
2022/02/07 17:23:18;;;;;;;;;;;;;;;;;;5027219;28;19913;-72
2022/02/07 17:25:46;;;;;;;;;;;;;;;;;;5032169;28;19913;-73
2022/02/07 17:28:12;;;;;;;;;;;;;;;;;;5029096;28;20570;-74
2022/02/07 17:30:38;;;;;;;;;;;;;;;;;;5035973;28;20011;-73
2022/02/07 17:33:03;;;;;;;;;;;;;;;;;;5036730;28;20007;-72
2022/02/07 17:35:28;;;;;;;;;;;;;;;;;;5025947;28;19928;-75
2022/02/07 17:37:54;;;;;;;;;;;;;;;;;;5041603;28;20055;-73
2022/02/07 17:40:19;;;;;;;;;;;;;;;;;;5035507;28;19916;-74
2022/02/07 17:42:45;;;;;;;;;;;;;;;;;;5038775;28;19913;-76
2022/02/07 17:45:15;;;;;;;;;;;;;;;;;;5043730;28;19916;-74
2022/02/07 17:47:41;;;;;;;;;;;;;;;;;;5047080;28;20008;-75
2022/02/07 17:50:07;;;;;;;;;;;;;;;;;;5036438;28;20003;-74
2022/02/07 17:52:33;;;;;;;;;;;;;;;;;;5040798;28;19924;-75
2022/02/07 17:54:58;;;;;;;;;;;;;;;;;;5041818;28;19921;-73
2022/02/07 17:57:24;;;;;;;;;;;;;;;;;;5037537;28;19913;-74
2022/02/07 17:59:50;;;;;;;;;;;;;;;;;;5043042;28;20370;-74
2022/02/07 18:02:15;;;;;;;;;;;;;;;;;;5036474;28;19992;-74
2022/02/07 18:04:41;;;;;;;;;;;;;;;;;;5040722;28;20011;-72
2022/02/07 18:07:07;;;;;;;;;;;;;;;;;;5036328;28;19961;-76
2022/02/07 18:09:32;;;;;;;;;;;;;;;;;;5036381;28;20924;-73
2022/02/07 18:11:58;;;;;;;;;;;;;;;;;;5046277;28;19917;-73
2022/02/07 18:14:23;;;;;;;;;;;;;;;;;;5038073;28;19917;-73
2022/02/07 18:16:48;;;;;;;;;;;;;;;;;;5035603;28;20439;-75
2022/02/07 18:19:21;;;;;;;;;;;;;;;;;;5038887;28;19913;-74
2022/02/07 18:21:47;;;;;;;;;;;;;;;;;;5038111;28;19916;-74
2022/02/07 18:24:12;;;;;;;;;;;;;;;;;;5041191;28;19913;-73
2022/02/07 18:26:38;;;;;;;;;;;;;;;;;;5038228;28;19912;-74
2022/02/07 18:29:03;;;;;;;;;;;;;;;;;;5040695;28;19960;-74
2022/02/07 18:31:29;;;;;;;;;;;;;;;;;;5039184;28;19952;-73
2022/02/07 18:33:54;;;;;;;;;;;;;;;;;;5035230;28;19913;-74
2022/02/07 18:36:27;;;;;;;;;;;;;;;;;;5043228;28;20287;-72
2022/02/07 18:38:55;;;;;;;;;;;;;;;;;;5036468;28;19924;-73
2022/02/07 18:41:25;;;;;;;;;;;;;;;;;;5039859;28;20390;-74
2022/02/07 18:43:54;;;;;;;;;;;;;;;;;;5036306;28;19967;-74
2022/02/07 18:46:20;;;;;;;;;;;;;;;;;;5039510;28;20275;-74
2022/02/07 18:48:45;;;;;;;;;;;;;;;;;;5041354;28;19920;-74
2022/02/07 18:51:11;;;;;;;;;;;;;;;;;;5042950;28;19917;-74
2022/02/07 18:53:37;;;;;;;;;;;;;;;;;;5036358;28;20004;-73
2022/02/07 18:56:09;;;;;;;;;;;;;;;;;;5038928;28;19920;-72
2022/02/07 18:58:39;;;;;;;;;;;;;;;;;;5035164;28;19917;-73
2022/02/07 19:03:39;;;;;;;;;;;;;;;;;;5037099;28;20016;-73
2022/02/07 19:08:47;;;;;;;;;;;;;;;;;;5029007;28;19945;-74
2022/02/07 19:11:14;;;;;;;;;;;;;;;;;;5028828;28;19916;-74
2022/02/07 19:13:39;;;;;;;;;;;;;;;;;;5027043;28;20345;-74
2022/02/07 19:16:05;;;;;;;;;;;;;;;;;;5026830;28;19924;-73
2022/02/07 19:19:07;;;;;;;;;;;;;;;;;;5029828;28;20391;-74
2022/02/07 19:21:24;;;;;;;;;;;;;;;;;;5030763;28;19942;-74
2022/02/07 19:23:55;;;;;;;;;;;;;;;;;;5026398;28;20257;-74
2022/02/07 19:26:29;;;;;;;;;;;;;;;;;;5029399;28;19909;-74
2022/02/07 19:29:09;;;;;;;;;;;;;;;;;;5028994;28;19916;-72
2022/02/07 19:31:44;;;;;;;;;;;;;;;;;;5029337;28;20368;-73
2022/02/07 19:37:06;;;;;;;;;;;;;;;;;;5037169;28;19916;-74
2022/02/07 19:39:32;;;;;;;;;;;;;;;;;;4982240;28;1341559;-74